sensor_id;sensor_type;location;lat;lon;timestamp;P1;durP1;ratioP1;P2;durP2;ratioP2
10387;SDS011;5240;51.128;4.566;2023-04-25T00:00:56;11.27;;;4.65;;
10387;SDS011;5240;51.128;4.566;2023-04-25T00:03:23;13.95;;;4.20;;
10387;SDS011;5240;51.128;4.566;2023-04-25T00:05:52;13.63;;;4.47;;
10387;SDS011;5240;51.128;4.566;2023-04-25T00:08:21;16.40;;;5.40;;
10387;SDS011;5240;51.128;4.566;2023-04-25T00:10:48;15.77;;;4.63;;
10387;SDS011;5240;51.128;4.566;2023-04-25T00:13:15;13.80;;;4.60;;
10387;SDS011;5240;51.128;4.566;2023-04-25T00:15:44;18.20;;;4.57;;
10387;SDS011;5240;51.128;4.566;2023-04-25T00:18:11;14.80;;;4.18;;
10387;SDS011;5240;51.128;4.566;2023-04-25T00:20:38;12.75;;;4.75;;
10387;SDS011;5240;51.128;4.566;2023-04-25T00:23:06;13.30;;;4.20;;
10387;SDS011;5240;51.128;4.566;2023-04-25T00:25:33;14.05;;;4.70;;
10387;SDS011;5240;51.128;4.566;2023-04-25T00:28:00;19.60;;;5.45;;
10387;SDS011;5240;51.128;4.566;2023-04-25T00:30:27;13.45;;;4.40;;
10387;SDS011;5240;51.128;4.566;2023-04-25T00:32:54;16.50;;;4.63;;
10387;SDS011;5240;51.128;4.566;2023-04-25T00:35:21;13.38;;;4.25;;
10387;SDS011;5240;51.128;4.566;2023-04-25T00:37:48;13.57;;;4.50;;
10387;SDS011;5240;51.128;4.566;2023-04-25T00:40:17;15.07;;;4.38;;
10387;SDS011;5240;51.128;4.566;2023-04-25T00:42:44;13.25;;;4.35;;
10387;SDS011;5240;51.128;4.566;2023-04-25T00:45:13;13.27;;;4.00;;
10387;SDS011;5240;51.128;4.566;2023-04-25T00:47:40;19.13;;;5.00;;
10387;SDS011;5240;51.128;4.566;2023-04-25T00:50:09;15.30;;;4.50;;
10387;SDS011;5240;51.128;4.566;2023-04-25T00:52:37;13.50;;;5.03;;
10387;SDS011;5240;51.128;4.566;2023-04-25T00:55:05;14.93;;;4.70;;
10387;SDS011;5240;51.128;4.566;2023-04-25T00:57:34;18.23;;;4.50;;
10387;SDS011;5240;51.128;4.566;2023-04-25T01:00:02;12.23;;;4.30;;
10387;SDS011;5240;51.128;4.566;2023-04-25T01:02:31;18.17;;;4.65;;
10387;SDS011;5240;51.128;4.566;2023-04-25T01:05:00;15.77;;;5.05;;
10387;SDS011;5240;51.128;4.566;2023-04-25T01:07:27;12.88;;;4.55;;
10387;SDS011;5240;51.128;4.566;2023-04-25T01:09:55;11.98;;;4.35;;
10387;SDS011;5240;51.128;4.566;2023-04-25T01:12:22;12.73;;;4.32;;
10387;SDS011;5240;51.128;4.566;2023-04-25T01:14:51;15.80;;;5.00;;
10387;SDS011;5240;51.128;4.566;2023-04-25T01:17:18;13.23;;;4.30;;
10387;SDS011;5240;51.128;4.566;2023-04-25T01:19:46;17.50;;;4.88;;
10387;SDS011;5240;51.128;4.566;2023-04-25T01:22:15;15.98;;;3.97;;
10387;SDS011;5240;51.128;4.566;2023-04-25T01:24:42;12.52;;;4.40;;
10387;SDS011;5240;51.128;4.566;2023-04-25T01:27:09;15.18;;;4.75;;
10387;SDS011;5240;51.128;4.566;2023-04-25T01:29:37;17.00;;;4.65;;
10387;SDS011;5240;51.128;4.566;2023-04-25T01:32:04;16.95;;;4.53;;
10387;SDS011;5240;51.128;4.566;2023-04-25T01:34:32;15.60;;;5.13;;
10387;SDS011;5240;51.128;4.566;2023-04-25T01:36:59;15.45;;;4.68;;
10387;SDS011;5240;51.128;4.566;2023-04-25T01:39:28;15.27;;;4.55;;
10387;SDS011;5240;51.128;4.566;2023-04-25T01:41:56;10.93;;;4.65;;
10387;SDS011;5240;51.128;4.566;2023-04-25T01:44:24;17.85;;;4.72;;
10387;SDS011;5240;51.128;4.566;2023-04-25T01:46:51;14.05;;;4.60;;
10387;SDS011;5240;51.128;4.566;2023-04-25T01:49:18;10.38;;;4.15;;
10387;SDS011;5240;51.128;4.566;2023-04-25T01:51:45;14.70;;;4.10;;
10387;SDS011;5240;51.128;4.566;2023-04-25T01:54:12;15.85;;;4.25;;
10387;SDS011;5240;51.128;4.566;2023-04-25T01:56:41;13.60;;;4.75;;
10387;SDS011;5240;51.128;4.566;2023-04-25T01:59:08;19.60;;;5.65;;
10387;SDS011;5240;51.128;4.566;2023-04-25T02:01:35;14.20;;;5.13;;
10387;SDS011;5240;51.128;4.566;2023-04-25T02:04:02;12.23;;;4.85;;
10387;SDS011;5240;51.128;4.566;2023-04-25T02:06:29;15.40;;;4.95;;
10387;SDS011;5240;51.128;4.566;2023-04-25T02:08:57;15.05;;;4.65;;
10387;SDS011;5240;51.128;4.566;2023-04-25T02:11:24;15.48;;;5.50;;
10387;SDS011;5240;51.128;4.566;2023-04-25T02:13:52;16.20;;;4.95;;
10387;SDS011;5240;51.128;4.566;2023-04-25T02:16:19;16.10;;;4.70;;
10387;SDS011;5240;51.128;4.566;2023-04-25T02:18:46;17.30;;;5.15;;
10387;SDS011;5240;51.128;4.566;2023-04-25T02:21:13;14.70;;;4.95;;
10387;SDS011;5240;51.128;4.566;2023-04-25T02:23:40;16.38;;;4.50;;
10387;SDS011;5240;51.128;4.566;2023-04-25T02:26:07;12.20;;;4.95;;
10387;SDS011;5240;51.128;4.566;2023-04-25T02:28:36;13.60;;;4.85;;
10387;SDS011;5240;51.128;4.566;2023-04-25T02:31:04;16.25;;;5.45;;
10387;SDS011;5240;51.128;4.566;2023-04-25T02:33:32;16.60;;;4.88;;
10387;SDS011;5240;51.128;4.566;2023-04-25T02:35:59;17.77;;;5.05;;
10387;SDS011;5240;51.128;4.566;2023-04-25T02:38:26;17.52;;;5.13;;
10387;SDS011;5240;51.128;4.566;2023-04-25T02:40:53;15.50;;;5.00;;
10387;SDS011;5240;51.128;4.566;2023-04-25T02:43:20;14.68;;;5.20;;
10387;SDS011;5240;51.128;4.566;2023-04-25T02:45:47;20.27;;;5.18;;
10387;SDS011;5240;51.128;4.566;2023-04-25T02:48:16;17.60;;;5.35;;
10387;SDS011;5240;51.128;4.566;2023-04-25T02:50:43;15.80;;;4.93;;
10387;SDS011;5240;51.128;4.566;2023-04-25T02:53:10;14.30;;;4.43;;
10387;SDS011;5240;51.128;4.566;2023-04-25T02:55:38;16.83;;;5.43;;
10387;SDS011;5240;51.128;4.566;2023-04-25T02:58:05;15.20;;;4.50;;
10387;SDS011;5240;51.128;4.566;2023-04-25T03:00:32;13.05;;;4.60;;
10387;SDS011;5240;51.128;4.566;2023-04-25T03:02:59;12.48;;;4.78;;
10387;SDS011;5240;51.128;4.566;2023-04-25T03:05:27;15.82;;;5.05;;
10387;SDS011;5240;51.128;4.566;2023-04-25T03:07:54;15.68;;;5.93;;
10387;SDS011;5240;51.128;4.566;2023-04-25T03:10:21;16.15;;;5.18;;
10387;SDS011;5240;51.128;4.566;2023-04-25T03:12:48;18.05;;;5.68;;
10387;SDS011;5240;51.128;4.566;2023-04-25T03:15:15;15.68;;;5.40;;
10387;SDS011;5240;51.128;4.566;2023-04-25T03:17:42;20.88;;;5.72;;
10387;SDS011;5240;51.128;4.566;2023-04-25T03:20:10;14.75;;;5.35;;
10387;SDS011;5240;51.128;4.566;2023-04-25T03:22:39;20.60;;;5.70;;
10387;SDS011;5240;51.128;4.566;2023-04-25T03:25:06;18.40;;;5.38;;
10387;SDS011;5240;51.128;4.566;2023-04-25T03:27:34;11.88;;;4.90;;
10387;SDS011;5240;51.128;4.566;2023-04-25T03:30:00;16.88;;;5.32;;
10387;SDS011;5240;51.128;4.566;2023-04-25T03:32:28;12.38;;;4.63;;
10387;SDS011;5240;51.128;4.566;2023-04-25T03:34:54;14.70;;;4.68;;
10387;SDS011;5240;51.128;4.566;2023-04-25T03:37:21;17.38;;;5.13;;
10387;SDS011;5240;51.128;4.566;2023-04-25T03:39:50;10.73;;;4.10;;
10387;SDS011;5240;51.128;4.566;2023-04-25T03:42:17;15.65;;;5.00;;
10387;SDS011;5240;51.128;4.566;2023-04-25T03:44:44;12.05;;;4.35;;
10387;SDS011;5240;51.128;4.566;2023-04-25T03:47:11;16.10;;;5.38;;
10387;SDS011;5240;51.128;4.566;2023-04-25T03:49:38;16.92;;;5.63;;
10387;SDS011;5240;51.128;4.566;2023-04-25T03:52:05;12.77;;;4.43;;
10387;SDS011;5240;51.128;4.566;2023-04-25T03:54:32;14.48;;;4.43;;
10387;SDS011;5240;51.128;4.566;2023-04-25T03:57:01;15.10;;;4.80;;
10387;SDS011;5240;51.128;4.566;2023-04-25T03:59:28;16.10;;;5.32;;
10387;SDS011;5240;51.128;4.566;2023-04-25T04:01:55;12.80;;;4.65;;
10387;SDS011;5240;51.128;4.566;2023-04-25T04:04:23;20.75;;;6.13;;
10387;SDS011;5240;51.128;4.566;2023-04-25T04:06:49;17.17;;;5.60;;
10387;SDS011;5240;51.128;4.566;2023-04-25T04:09:17;16.90;;;5.20;;
10387;SDS011;5240;51.128;4.566;2023-04-25T04:11:45;13.48;;;5.00;;
10387;SDS011;5240;51.128;4.566;2023-04-25T04:14:14;18.42;;;5.20;;
10387;SDS011;5240;51.128;4.566;2023-04-25T04:16:41;13.82;;;5.00;;
10387;SDS011;5240;51.128;4.566;2023-04-25T04:19:08;18.38;;;5.72;;
10387;SDS011;5240;51.128;4.566;2023-04-25T04:21:35;17.35;;;5.00;;
10387;SDS011;5240;51.128;4.566;2023-04-25T04:24:02;16.92;;;5.10;;
10387;SDS011;5240;51.128;4.566;2023-04-25T04:26:31;15.25;;;5.65;;
10387;SDS011;5240;51.128;4.566;2023-04-25T04:28:59;14.15;;;5.82;;
10387;SDS011;5240;51.128;4.566;2023-04-25T04:31:27;20.20;;;5.68;;
10387;SDS011;5240;51.128;4.566;2023-04-25T04:33:55;15.38;;;5.82;;
10387;SDS011;5240;51.128;4.566;2023-04-25T04:36:22;20.42;;;5.80;;
10387;SDS011;5240;51.128;4.566;2023-04-25T04:38:49;14.45;;;6.20;;
10387;SDS011;5240;51.128;4.566;2023-04-25T04:41:17;21.52;;;5.55;;
10387;SDS011;5240;51.128;4.566;2023-04-25T04:43:45;13.02;;;5.43;;
10387;SDS011;5240;51.128;4.566;2023-04-25T04:46:13;18.05;;;5.75;;
10387;SDS011;5240;51.128;4.566;2023-04-25T04:48:42;20.73;;;5.60;;
10387;SDS011;5240;51.128;4.566;2023-04-25T04:51:10;14.90;;;5.25;;
10387;SDS011;5240;51.128;4.566;2023-04-25T04:53:38;16.30;;;5.50;;
10387;SDS011;5240;51.128;4.566;2023-04-25T04:56:05;14.82;;;4.93;;
10387;SDS011;5240;51.128;4.566;2023-04-25T04:58:32;19.85;;;5.35;;
10387;SDS011;5240;51.128;4.566;2023-04-25T05:01:01;12.23;;;5.50;;
10387;SDS011;5240;51.128;4.566;2023-04-25T05:03:28;14.82;;;4.72;;
10387;SDS011;5240;51.128;4.566;2023-04-25T05:05:57;15.45;;;4.85;;
10387;SDS011;5240;51.128;4.566;2023-04-25T05:08:24;15.57;;;5.20;;
10387;SDS011;5240;51.128;4.566;2023-04-25T05:10:52;19.92;;;5.60;;
10387;SDS011;5240;51.128;4.566;2023-04-25T05:13:19;15.70;;;5.30;;
10387;SDS011;5240;51.128;4.566;2023-04-25T05:15:46;16.63;;;4.80;;
10387;SDS011;5240;51.128;4.566;2023-04-25T05:18:13;16.48;;;5.32;;
10387;SDS011;5240;51.128;4.566;2023-04-25T05:20:40;14.48;;;4.65;;
10387;SDS011;5240;51.128;4.566;2023-04-25T05:23:09;13.63;;;4.57;;
10387;SDS011;5240;51.128;4.566;2023-04-25T05:25:36;16.77;;;5.15;;
10387;SDS011;5240;51.128;4.566;2023-04-25T05:28:03;18.25;;;5.80;;
10387;SDS011;5240;51.128;4.566;2023-04-25T05:30:30;9.77;;;4.85;;
10387;SDS011;5240;51.128;4.566;2023-04-25T05:32:57;13.82;;;4.85;;
10387;SDS011;5240;51.128;4.566;2023-04-25T05:35:24;13.70;;;4.93;;
10387;SDS011;5240;51.128;4.566;2023-04-25T05:37:51;17.98;;;5.28;;
10387;SDS011;5240;51.128;4.566;2023-04-25T05:40:20;13.82;;;4.95;;
10387;SDS011;5240;51.128;4.566;2023-04-25T05:42:47;17.00;;;5.93;;
10387;SDS011;5240;51.128;4.566;2023-04-25T05:45:14;16.88;;;5.57;;
10387;SDS011;5240;51.128;4.566;2023-04-25T05:47:42;17.73;;;5.40;;
10387;SDS011;5240;51.128;4.566;2023-04-25T05:50:09;17.48;;;5.10;;
10387;SDS011;5240;51.128;4.566;2023-04-25T05:52:36;11.95;;;5.45;;
10387;SDS011;5240;51.128;4.566;2023-04-25T05:55:04;16.83;;;5.22;;
10387;SDS011;5240;51.128;4.566;2023-04-25T05:57:33;15.27;;;5.20;;
10387;SDS011;5240;51.128;4.566;2023-04-25T06:00:00;14.15;;;5.43;;
10387;SDS011;5240;51.128;4.566;2023-04-25T06:02:29;14.52;;;4.40;;
10387;SDS011;5240;51.128;4.566;2023-04-25T06:04:56;11.75;;;4.75;;
10387;SDS011;5240;51.128;4.566;2023-04-25T06:07:23;16.70;;;5.47;;
10387;SDS011;5240;51.128;4.566;2023-04-25T06:09:50;16.15;;;4.80;;
10387;SDS011;5240;51.128;4.566;2023-04-25T06:12:18;14.68;;;4.85;;
10387;SDS011;5240;51.128;4.566;2023-04-25T06:14:46;17.42;;;4.90;;
10387;SDS011;5240;51.128;4.566;2023-04-25T06:17:14;16.65;;;4.82;;
10387;SDS011;5240;51.128;4.566;2023-04-25T06:19:41;21.20;;;4.72;;
10387;SDS011;5240;51.128;4.566;2023-04-25T06:22:08;15.80;;;5.03;;
10387;SDS011;5240;51.128;4.566;2023-04-25T06:24:38;22.48;;;5.13;;
10387;SDS011;5240;51.128;4.566;2023-04-25T06:27:05;16.83;;;4.32;;
10387;SDS011;5240;51.128;4.566;2023-04-25T06:29:32;14.35;;;4.53;;
10387;SDS011;5240;51.128;4.566;2023-04-25T06:32:03;11.32;;;4.43;;
10387;SDS011;5240;51.128;4.566;2023-04-25T06:34:30;22.48;;;5.80;;
10387;SDS011;5240;51.128;4.566;2023-04-25T06:36:58;11.85;;;4.85;;
10387;SDS011;5240;51.128;4.566;2023-04-25T06:39:25;12.27;;;3.97;;
10387;SDS011;5240;51.128;4.566;2023-04-25T06:41:52;11.63;;;4.22;;
10387;SDS011;5240;51.128;4.566;2023-04-25T06:44:20;15.80;;;4.55;;
10387;SDS011;5240;51.128;4.566;2023-04-25T06:46:49;7.57;;;3.17;;
10387;SDS011;5240;51.128;4.566;2023-04-25T06:49:17;14.57;;;5.07;;
10387;SDS011;5240;51.128;4.566;2023-04-25T06:51:44;10.73;;;3.53;;
10387;SDS011;5240;51.128;4.566;2023-04-25T06:54:11;10.98;;;3.30;;
10387;SDS011;5240;51.128;4.566;2023-04-25T06:56:38;12.40;;;3.50;;
10387;SDS011;5240;51.128;4.566;2023-04-25T06:59:06;16.00;;;3.72;;
10387;SDS011;5240;51.128;4.566;2023-04-25T07:01:34;10.98;;;3.40;;
10387;SDS011;5240;51.128;4.566;2023-04-25T07:04:01;14.15;;;3.60;;
10387;SDS011;5240;51.128;4.566;2023-04-25T07:06:30;12.48;;;3.20;;
10387;SDS011;5240;51.128;4.566;2023-04-25T07:08:57;14.05;;;3.83;;
10387;SDS011;5240;51.128;4.566;2023-04-25T07:11:24;18.70;;;3.78;;
10387;SDS011;5240;51.128;4.566;2023-04-25T07:13:51;12.68;;;2.85;;
10387;SDS011;5240;51.128;4.566;2023-04-25T07:16:20;12.00;;;3.38;;
10387;SDS011;5240;51.128;4.566;2023-04-25T07:18:49;11.32;;;3.92;;
10387;SDS011;5240;51.128;4.566;2023-04-25T07:21:17;19.00;;;4.00;;
10387;SDS011;5240;51.128;4.566;2023-04-25T07:23:45;9.27;;;3.00;;
10387;SDS011;5240;51.128;4.566;2023-04-25T07:26:13;7.28;;;2.92;;
10387;SDS011;5240;51.128;4.566;2023-04-25T07:28:41;9.20;;;2.47;;
10387;SDS011;5240;51.128;4.566;2023-04-25T07:31:08;6.97;;;2.60;;
10387;SDS011;5240;51.128;4.566;2023-04-25T07:33:36;11.00;;;3.28;;
10387;SDS011;5240;51.128;4.566;2023-04-25T07:36:03;10.20;;;3.00;;
10387;SDS011;5240;51.128;4.566;2023-04-25T07:38:31;11.05;;;3.53;;
10387;SDS011;5240;51.128;4.566;2023-04-25T07:41:00;13.00;;;2.85;;
10387;SDS011;5240;51.128;4.566;2023-04-25T07:43:27;6.13;;;2.78;;
10387;SDS011;5240;51.128;4.566;2023-04-25T07:45:56;7.47;;;2.53;;
10387;SDS011;5240;51.128;4.566;2023-04-25T07:48:24;8.65;;;2.88;;
10387;SDS011;5240;51.128;4.566;2023-04-25T07:50:52;9.63;;;2.95;;
10387;SDS011;5240;51.128;4.566;2023-04-25T07:53:20;8.10;;;2.55;;
10387;SDS011;5240;51.128;4.566;2023-04-25T07:55:50;9.60;;;2.75;;
10387;SDS011;5240;51.128;4.566;2023-04-25T07:58:19;7.55;;;2.83;;
10387;SDS011;5240;51.128;4.566;2023-04-25T08:00:47;6.80;;;2.28;;
10387;SDS011;5240;51.128;4.566;2023-04-25T08:03:21;8.00;;;2.58;;
10387;SDS011;5240;51.128;4.566;2023-04-25T08:05:49;11.88;;;3.00;;
10387;SDS011;5240;51.128;4.566;2023-04-25T08:08:17;8.57;;;2.60;;
10387;SDS011;5240;51.128;4.566;2023-04-25T08:10:44;7.43;;;2.40;;
10387;SDS011;5240;51.128;4.566;2023-04-25T08:13:13;10.35;;;2.70;;
10387;SDS011;5240;51.128;4.566;2023-04-25T08:15:42;9.80;;;2.95;;
10387;SDS011;5240;51.128;4.566;2023-04-25T08:18:09;17.35;;;3.53;;
10387;SDS011;5240;51.128;4.566;2023-04-25T08:20:36;7.78;;;2.65;;
10387;SDS011;5240;51.128;4.566;2023-04-25T08:23:03;7.47;;;2.75;;
10387;SDS011;5240;51.128;4.566;2023-04-25T08:25:30;6.57;;;2.60;;
10387;SDS011;5240;51.128;4.566;2023-04-25T08:31:17;10.77;;;2.92;;
10387;SDS011;5240;51.128;4.566;2023-04-25T08:36:43;10.00;;;2.53;;
10387;SDS011;5240;51.128;4.566;2023-04-25T08:39:13;8.50;;;2.83;;
10387;SDS011;5240;51.128;4.566;2023-04-25T08:41:42;6.75;;;2.53;;
10387;SDS011;5240;51.128;4.566;2023-04-25T08:44:09;7.95;;;2.50;;
10387;SDS011;5240;51.128;4.566;2023-04-25T08:46:39;9.82;;;2.30;;
10387;SDS011;5240;51.128;4.566;2023-04-25T08:49:08;5.68;;;2.00;;
10387;SDS011;5240;51.128;4.566;2023-04-25T08:51:35;7.95;;;2.20;;
10387;SDS011;5240;51.128;4.566;2023-04-25T08:54:13;6.28;;;1.95;;
10387;SDS011;5240;51.128;4.566;2023-04-25T08:56:41;8.27;;;2.20;;
10387;SDS011;5240;51.128;4.566;2023-04-25T08:59:11;11.45;;;2.30;;
10387;SDS011;5240;51.128;4.566;2023-04-25T09:01:40;5.28;;;2.60;;
10387;SDS011;5240;51.128;4.566;2023-04-25T09:04:09;6.80;;;2.33;;
10387;SDS011;5240;51.128;4.566;2023-04-25T09:06:38;5.35;;;2.20;;
10387;SDS011;5240;51.128;4.566;2023-04-25T09:09:05;6.90;;;2.60;;
10387;SDS011;5240;51.128;4.566;2023-04-25T09:11:37;8.25;;;2.25;;
10387;SDS011;5240;51.128;4.566;2023-04-25T09:14:12;8.82;;;2.65;;
10387;SDS011;5240;51.128;4.566;2023-04-25T09:17:02;6.85;;;2.30;;
10387;SDS011;5240;51.128;4.566;2023-04-25T09:19:33;6.40;;;2.30;;
10387;SDS011;5240;51.128;4.566;2023-04-25T09:22:04;9.23;;;2.58;;
10387;SDS011;5240;51.128;4.566;2023-04-25T09:24:33;11.10;;;3.05;;
10387;SDS011;5240;51.128;4.566;2023-04-25T09:27:03;6.18;;;2.22;;
10387;SDS011;5240;51.128;4.566;2023-04-25T09:29:31;8.68;;;2.53;;
10387;SDS011;5240;51.128;4.566;2023-04-25T09:32:18;7.13;;;2.50;;
10387;SDS011;5240;51.128;4.566;2023-04-25T09:34:47;7.25;;;2.40;;
10387;SDS011;5240;51.128;4.566;2023-04-25T09:37:18;6.72;;;2.22;;
10387;SDS011;5240;51.128;4.566;2023-04-25T09:39:47;9.80;;;3.63;;
10387;SDS011;5240;51.128;4.566;2023-04-25T09:42:15;6.57;;;1.85;;
10387;SDS011;5240;51.128;4.566;2023-04-25T09:44:43;3.88;;;1.75;;
10387;SDS011;5240;51.128;4.566;2023-04-25T09:47:12;5.13;;;2.15;;
10387;SDS011;5240;51.128;4.566;2023-04-25T09:49:42;5.53;;;1.80;;
10387;SDS011;5240;51.128;4.566;2023-04-25T09:52:13;4.28;;;1.90;;
10387;SDS011;5240;51.128;4.566;2023-04-25T09:54:41;5.93;;;2.05;;
10387;SDS011;5240;51.128;4.566;2023-04-25T09:57:10;4.72;;;2.08;;
10387;SDS011;5240;51.128;4.566;2023-04-25T09:59:39;5.90;;;2.00;;
10387;SDS011;5240;51.128;4.566;2023-04-25T10:02:11;4.60;;;1.70;;
10387;SDS011;5240;51.128;4.566;2023-04-25T10:04:41;7.45;;;2.25;;
10387;SDS011;5240;51.128;4.566;2023-04-25T10:07:22;4.45;;;1.92;;
10387;SDS011;5240;51.128;4.566;2023-04-25T10:09:57;6.57;;;1.95;;
10387;SDS011;5240;51.128;4.566;2023-04-25T10:12:32;5.10;;;1.80;;
10387;SDS011;5240;51.128;4.566;2023-04-25T10:15:00;6.55;;;1.98;;
10387;SDS011;5240;51.128;4.566;2023-04-25T10:17:29;4.05;;;1.75;;
10387;SDS011;5240;51.128;4.566;2023-04-25T10:19:59;8.00;;;1.80;;
10387;SDS011;5240;51.128;4.566;2023-04-25T10:22:29;5.53;;;2.10;;
10387;SDS011;5240;51.128;4.566;2023-04-25T10:25:00;6.78;;;2.10;;
10387;SDS011;5240;51.128;4.566;2023-04-25T10:27:29;8.07;;;1.90;;
10387;SDS011;5240;51.128;4.566;2023-04-25T10:30:00;5.57;;;1.98;;
10387;SDS011;5240;51.128;4.566;2023-04-25T10:32:30;5.10;;;2.00;;
10387;SDS011;5240;51.128;4.566;2023-04-25T10:35:12;4.93;;;1.90;;
10387;SDS011;5240;51.128;4.566;2023-04-25T10:37:57;9.05;;;1.88;;
10387;SDS011;5240;51.128;4.566;2023-04-25T10:40:25;3.42;;;1.75;;
10387;SDS011;5240;51.128;4.566;2023-04-25T10:42:53;5.20;;;2.03;;
10387;SDS011;5240;51.128;4.566;2023-04-25T10:45:21;6.45;;;1.92;;
10387;SDS011;5240;51.128;4.566;2023-04-25T10:47:49;10.85;;;2.45;;
10387;SDS011;5240;51.128;4.566;2023-04-25T10:50:20;8.45;;;2.40;;
10387;SDS011;5240;51.128;4.566;2023-04-25T10:52:48;5.55;;;2.13;;
10387;SDS011;5240;51.128;4.566;2023-04-25T10:55:15;6.00;;;1.77;;
10387;SDS011;5240;51.128;4.566;2023-04-25T10:57:45;4.68;;;2.05;;
10387;SDS011;5240;51.128;4.566;2023-04-25T11:00:18;5.85;;;1.50;;
10387;SDS011;5240;51.128;4.566;2023-04-25T11:02:52;6.38;;;2.15;;
10387;SDS011;5240;51.128;4.566;2023-04-25T11:05:26;4.03;;;1.70;;
10387;SDS011;5240;51.128;4.566;2023-04-25T11:07:59;7.07;;;2.15;;
10387;SDS011;5240;51.128;4.566;2023-04-25T11:10:30;4.65;;;1.92;;
10387;SDS011;5240;51.128;4.566;2023-04-25T11:13:01;6.72;;;2.13;;
10387;SDS011;5240;51.128;4.566;2023-04-25T11:15:29;4.28;;;2.00;;
10387;SDS011;5240;51.128;4.566;2023-04-25T11:17:56;4.70;;;2.03;;
10387;SDS011;5240;51.128;4.566;2023-04-25T11:20:25;4.35;;;1.70;;
10387;SDS011;5240;51.128;4.566;2023-04-25T11:22:57;7.40;;;2.00;;
10387;SDS011;5240;51.128;4.566;2023-04-25T11:25:25;6.55;;;1.70;;
10387;SDS011;5240;51.128;4.566;2023-04-25T11:27:53;4.43;;;1.75;;
10387;SDS011;5240;51.128;4.566;2023-04-25T11:30:21;3.00;;;1.60;;
10387;SDS011;5240;51.128;4.566;2023-04-25T11:32:50;5.20;;;1.60;;
10387;SDS011;5240;51.128;4.566;2023-04-25T11:35:18;4.53;;;1.80;;
10387;SDS011;5240;51.128;4.566;2023-04-25T11:37:49;6.28;;;2.20;;
10387;SDS011;5240;51.128;4.566;2023-04-25T11:40:17;4.88;;;1.63;;
10387;SDS011;5240;51.128;4.566;2023-04-25T11:42:44;7.97;;;2.10;;
10387;SDS011;5240;51.128;4.566;2023-04-25T11:45:13;5.60;;;1.63;;
10387;SDS011;5240;51.128;4.566;2023-04-25T11:47:42;9.50;;;2.22;;
10387;SDS011;5240;51.128;4.566;2023-04-25T11:50:09;5.28;;;1.60;;
10387;SDS011;5240;51.128;4.566;2023-04-25T11:52:37;7.20;;;1.92;;
10387;SDS011;5240;51.128;4.566;2023-04-25T11:55:09;4.68;;;1.85;;
10387;SDS011;5240;51.128;4.566;2023-04-25T11:57:39;4.30;;;1.70;;
10387;SDS011;5240;51.128;4.566;2023-04-25T12:00:08;6.63;;;1.60;;
10387;SDS011;5240;51.128;4.566;2023-04-25T12:02:40;3.65;;;1.67;;
10387;SDS011;5240;51.128;4.566;2023-04-25T12:05:09;5.85;;;2.30;;
10387;SDS011;5240;51.128;4.566;2023-04-25T12:07:38;7.22;;;1.85;;
10387;SDS011;5240;51.128;4.566;2023-04-25T12:10:06;5.00;;;1.60;;
10387;SDS011;5240;51.128;4.566;2023-04-25T12:12:36;5.53;;;2.00;;
10387;SDS011;5240;51.128;4.566;2023-04-25T12:15:08;3.92;;;2.05;;
10387;SDS011;5240;51.128;4.566;2023-04-25T12:17:39;5.05;;;1.45;;
10387;SDS011;5240;51.128;4.566;2023-04-25T12:20:11;3.42;;;1.50;;
10387;SDS011;5240;51.128;4.566;2023-04-25T12:22:40;3.85;;;1.50;;
10387;SDS011;5240;51.128;4.566;2023-04-25T12:25:11;4.53;;;1.70;;
10387;SDS011;5240;51.128;4.566;2023-04-25T12:27:38;6.95;;;1.67;;
10387;SDS011;5240;51.128;4.566;2023-04-25T12:30:09;6.30;;;1.77;;
10387;SDS011;5240;51.128;4.566;2023-04-25T12:32:37;3.60;;;1.55;;
10387;SDS011;5240;51.128;4.566;2023-04-25T12:35:05;6.55;;;1.75;;
10387;SDS011;5240;51.128;4.566;2023-04-25T12:37:32;3.83;;;1.55;;
10387;SDS011;5240;51.128;4.566;2023-04-25T12:40:00;3.78;;;1.50;;
10387;SDS011;5240;51.128;4.566;2023-04-25T12:42:30;5.55;;;1.80;;
10387;SDS011;5240;51.128;4.566;2023-04-25T12:45:00;4.97;;;1.48;;
10387;SDS011;5240;51.128;4.566;2023-04-25T12:47:31;3.80;;;1.38;;
10387;SDS011;5240;51.128;4.566;2023-04-25T12:50:00;5.45;;;1.70;;
10387;SDS011;5240;51.128;4.566;2023-04-25T12:52:27;5.18;;;1.65;;
10387;SDS011;5240;51.128;4.566;2023-04-25T12:57:59;6.03;;;1.58;;
10387;SDS011;5240;51.128;4.566;2023-04-25T13:00:27;2.03;;;1.60;;
10387;SDS011;5240;51.128;4.566;2023-04-25T13:02:57;10.15;;;1.88;;
10387;SDS011;5240;51.128;4.566;2023-04-25T13:05:24;4.15;;;1.77;;
10387;SDS011;5240;51.128;4.566;2023-04-25T13:07:51;2.47;;;1.60;;
10387;SDS011;5240;51.128;4.566;2023-04-25T13:10:18;3.72;;;1.60;;
10387;SDS011;5240;51.128;4.566;2023-04-25T13:12:46;4.55;;;1.95;;
10387;SDS011;5240;51.128;4.566;2023-04-25T13:15:20;6.25;;;1.95;;
10387;SDS011;5240;51.128;4.566;2023-04-25T13:17:50;3.53;;;1.98;;
10387;SDS011;5240;51.128;4.566;2023-04-25T13:20:17;4.65;;;2.03;;
10387;SDS011;5240;51.128;4.566;2023-04-25T13:22:47;5.07;;;1.60;;
10387;SDS011;5240;51.128;4.566;2023-04-25T13:25:14;6.68;;;1.90;;
10387;SDS011;5240;51.128;4.566;2023-04-25T13:27:41;5.25;;;1.67;;
10387;SDS011;5240;51.128;4.566;2023-04-25T13:30:09;3.05;;;1.80;;
10387;SDS011;5240;51.128;4.566;2023-04-25T13:32:38;3.88;;;1.45;;
10387;SDS011;5240;51.128;4.566;2023-04-25T13:35:08;3.90;;;1.80;;
10387;SDS011;5240;51.128;4.566;2023-04-25T13:37:36;3.85;;;1.65;;
10387;SDS011;5240;51.128;4.566;2023-04-25T13:40:04;4.93;;;2.08;;
10387;SDS011;5240;51.128;4.566;2023-04-25T13:42:34;4.82;;;1.80;;
10387;SDS011;5240;51.128;4.566;2023-04-25T13:45:08;7.78;;;2.00;;
10387;SDS011;5240;51.128;4.566;2023-04-25T13:48:02;7.07;;;1.83;;
10387;SDS011;5240;51.128;4.566;2023-04-25T13:50:31;7.13;;;1.98;;
10387;SDS011;5240;51.128;4.566;2023-04-25T13:52:59;5.53;;;1.90;;
10387;SDS011;5240;51.128;4.566;2023-04-25T13:55:31;4.43;;;1.60;;
10387;SDS011;5240;51.128;4.566;2023-04-25T13:58:01;8.32;;;2.10;;
10387;SDS011;5240;51.128;4.566;2023-04-25T14:00:35;5.63;;;2.20;;
10387;SDS011;5240;51.128;4.566;2023-04-25T14:03:08;4.35;;;1.95;;
10387;SDS011;5240;51.128;4.566;2023-04-25T14:05:36;6.18;;;1.83;;
10387;SDS011;5240;51.128;4.566;2023-04-25T14:08:05;3.38;;;1.63;;
10387;SDS011;5240;51.128;4.566;2023-04-25T14:10:32;5.68;;;1.80;;
10387;SDS011;5240;51.128;4.566;2023-04-25T14:12:59;3.55;;;1.45;;
10387;SDS011;5240;51.128;4.566;2023-04-25T14:15:29;3.63;;;1.60;;
10387;SDS011;5240;51.128;4.566;2023-04-25T14:17:57;3.70;;;1.35;;
10387;SDS011;5240;51.128;4.566;2023-04-25T14:20:26;4.93;;;1.48;;
10387;SDS011;5240;51.128;4.566;2023-04-25T14:22:53;6.22;;;1.90;;
10387;SDS011;5240;51.128;4.566;2023-04-25T14:25:21;8.82;;;2.00;;
10387;SDS011;5240;51.128;4.566;2023-04-25T14:27:48;4.90;;;1.90;;
10387;SDS011;5240;51.128;4.566;2023-04-25T14:30:16;4.03;;;1.60;;
10387;SDS011;5240;51.128;4.566;2023-04-25T14:32:43;5.25;;;1.67;;
10387;SDS011;5240;51.128;4.566;2023-04-25T14:35:12;3.40;;;1.50;;
10387;SDS011;5240;51.128;4.566;2023-04-25T14:43:28;3.17;;;1.70;;
10387;SDS011;5240;51.128;4.566;2023-04-25T14:45:55;3.58;;;1.70;;
10387;SDS011;5240;51.128;4.566;2023-04-25T14:48:23;4.18;;;1.92;;
10387;SDS011;5240;51.128;4.566;2023-04-25T14:50:50;6.88;;;1.80;;
10387;SDS011;5240;51.128;4.566;2023-04-25T14:53:17;3.70;;;1.77;;
10387;SDS011;5240;51.128;4.566;2023-04-25T14:55:44;7.95;;;2.20;;
10387;SDS011;5240;51.128;4.566;2023-04-25T14:58:11;5.20;;;1.70;;
10387;SDS011;5240;51.128;4.566;2023-04-25T15:00:40;8.60;;;2.33;;
10387;SDS011;5240;51.128;4.566;2023-04-25T15:03:08;5.22;;;1.83;;
10387;SDS011;5240;51.128;4.566;2023-04-25T15:05:36;4.47;;;1.95;;
10387;SDS011;5240;51.128;4.566;2023-04-25T15:08:04;6.22;;;1.90;;
10387;SDS011;5240;51.128;4.566;2023-04-25T15:10:31;4.75;;;1.80;;
10387;SDS011;5240;51.128;4.566;2023-04-25T15:12:58;4.38;;;1.52;;
10387;SDS011;5240;51.128;4.566;2023-04-25T15:15:25;4.60;;;1.60;;
10387;SDS011;5240;51.128;4.566;2023-04-25T15:17:54;4.60;;;1.90;;